sensor_id;sensor_type;location;lat;lon;timestamp;P1;durP1;ratioP1;P2;durP2;ratioP2
3781;SDS011;6881;49.962;7.718;2022-11-11T00:01:41;10.90;;;5.00;;
3781;SDS011;6881;49.962;7.718;2022-11-11T00:04:06;7.50;;;4.77;;
3781;SDS011;6881;49.962;7.718;2022-11-11T00:06:31;7.23;;;5.20;;
3781;SDS011;6881;49.962;7.718;2022-11-11T00:08:57;7.70;;;5.70;;
3781;SDS011;6881;49.962;7.718;2022-11-11T00:11:22;9.27;;;6.30;;
3781;SDS011;6881;49.962;7.718;2022-11-11T00:13:47;5.63;;;4.97;;
3781;SDS011;6881;49.962;7.718;2022-11-11T00:16:13;6.60;;;4.40;;
3781;SDS011;6881;49.962;7.718;2022-11-11T00:18:43;4.70;;;3.80;;
3781;SDS011;6881;49.962;7.718;2022-11-11T00:21:27;8.40;;;4.47;;
3781;SDS011;6881;49.962;7.718;2022-11-11T00:24:02;7.70;;;4.20;;
3781;SDS011;6881;49.962;7.718;2022-11-11T00:26:47;6.10;;;4.27;;
3781;SDS011;6881;49.962;7.718;2022-11-11T00:29:12;5.00;;;4.03;;
3781;SDS011;6881;49.962;7.718;2022-11-11T00:31:38;8.93;;;4.33;;
3781;SDS011;6881;49.962;7.718;2022-11-11T00:34:23;11.90;;;5.07;;
3781;SDS011;6881;49.962;7.718;2022-11-11T00:36:49;5.77;;;3.50;;
3781;SDS011;6881;49.962;7.718;2022-11-11T00:39:14;5.60;;;3.30;;
3781;SDS011;6881;49.962;7.718;2022-11-11T00:41:39;6.40;;;3.80;;
3781;SDS011;6881;49.962;7.718;2022-11-11T00:44:05;16.93;;;5.47;;
3781;SDS011;6881;49.962;7.718;2022-11-11T00:46:30;9.33;;;4.50;;
3781;SDS011;6881;49.962;7.718;2022-11-11T00:49:14;5.63;;;3.70;;
3781;SDS011;6881;49.962;7.718;2022-11-11T00:51:58;6.47;;;3.20;;
3781;SDS011;6881;49.962;7.718;2022-11-11T00:54:23;4.00;;;3.57;;
3781;SDS011;6881;49.962;7.718;2022-11-11T00:56:49;11.07;;;5.00;;
3781;SDS011;6881;49.962;7.718;2022-11-11T00:59:14;14.80;;;5.23;;
3781;SDS011;6881;49.962;7.718;2022-11-11T01:01:39;8.30;;;4.83;;
3781;SDS011;6881;49.962;7.718;2022-11-11T01:04:05;8.53;;;5.93;;
3781;SDS011;6881;49.962;7.718;2022-11-11T01:06:30;8.57;;;5.00;;
3781;SDS011;6881;49.962;7.718;2022-11-11T01:08:56;6.93;;;4.30;;
3781;SDS011;6881;49.962;7.718;2022-11-11T01:11:21;7.10;;;4.00;;
3781;SDS011;6881;49.962;7.718;2022-11-11T01:13:48;8.50;;;3.90;;
3781;SDS011;6881;49.962;7.718;2022-11-11T01:16:15;11.40;;;5.90;;
3781;SDS011;6881;49.962;7.718;2022-11-11T01:18:43;15.23;;;7.37;;
3781;SDS011;6881;49.962;7.718;2022-11-11T01:21:13;16.43;;;6.67;;
3781;SDS011;6881;49.962;7.718;2022-11-11T01:23:43;15.80;;;7.70;;
3781;SDS011;6881;49.962;7.718;2022-11-11T01:26:25;10.83;;;4.73;;
3781;SDS011;6881;49.962;7.718;2022-11-11T01:28:52;6.80;;;4.27;;
3781;SDS011;6881;49.962;7.718;2022-11-11T01:31:20;10.57;;;5.73;;
3781;SDS011;6881;49.962;7.718;2022-11-11T01:33:46;7.10;;;4.20;;
3781;SDS011;6881;49.962;7.718;2022-11-11T01:36:13;5.47;;;3.13;;
3781;SDS011;6881;49.962;7.718;2022-11-11T01:38:42;5.17;;;2.20;;
3781;SDS011;6881;49.962;7.718;2022-11-11T01:41:10;4.33;;;1.80;;
3781;SDS011;6881;49.962;7.718;2022-11-11T01:43:56;2.33;;;1.67;;
3781;SDS011;6881;49.962;7.718;2022-11-11T01:46:29;6.07;;;2.90;;
3781;SDS011;6881;49.962;7.718;2022-11-11T01:48:57;11.90;;;5.83;;
3781;SDS011;6881;49.962;7.718;2022-11-11T01:54:24;9.00;;;5.23;;
3781;SDS011;6881;49.962;7.718;2022-11-11T01:56:54;11.10;;;5.33;;
3781;SDS011;6881;49.962;7.718;2022-11-11T01:59:23;8.97;;;5.73;;
3781;SDS011;6881;49.962;7.718;2022-11-11T02:01:48;6.13;;;3.33;;
3781;SDS011;6881;49.962;7.718;2022-11-11T02:04:14;2.60;;;1.97;;
3781;SDS011;6881;49.962;7.718;2022-11-11T02:06:59;4.10;;;2.13;;
3781;SDS011;6881;49.962;7.718;2022-11-11T02:09:27;2.77;;;1.30;;
3781;SDS011;6881;49.962;7.718;2022-11-11T02:11:53;4.43;;;1.70;;
3781;SDS011;6881;49.962;7.718;2022-11-11T02:14:52;7.03;;;2.40;;
3781;SDS011;6881;49.962;7.718;2022-11-11T02:17:19;6.60;;;3.50;;
3781;SDS011;6881;49.962;7.718;2022-11-11T02:19:58;2.80;;;1.60;;
3781;SDS011;6881;49.962;7.718;2022-11-11T02:22:30;3.30;;;1.80;;
3781;SDS011;6881;49.962;7.718;2022-11-11T02:25:00;6.27;;;2.67;;
3781;SDS011;6881;49.962;7.718;2022-11-11T02:27:28;4.83;;;2.77;;
3781;SDS011;6881;49.962;7.718;2022-11-11T02:29:55;3.87;;;2.60;;
3781;SDS011;6881;49.962;7.718;2022-11-11T02:32:22;5.47;;;2.37;;
3781;SDS011;6881;49.962;7.718;2022-11-11T02:34:48;5.00;;;3.20;;
3781;SDS011;6881;49.962;7.718;2022-11-11T02:37:13;4.77;;;2.67;;
3781;SDS011;6881;49.962;7.718;2022-11-11T02:39:45;5.93;;;2.83;;
3781;SDS011;6881;49.962;7.718;2022-11-11T02:42:12;4.07;;;2.40;;
3781;SDS011;6881;49.962;7.718;2022-11-11T02:44:38;7.93;;;2.43;;
3781;SDS011;6881;49.962;7.718;2022-11-11T02:47:04;3.67;;;2.70;;
3781;SDS011;6881;49.962;7.718;2022-11-11T02:49:30;3.40;;;1.67;;
3781;SDS011;6881;49.962;7.718;2022-11-11T02:51:55;2.80;;;2.00;;
3781;SDS011;6881;49.962;7.718;2022-11-11T02:54:21;5.27;;;1.90;;
3781;SDS011;6881;49.962;7.718;2022-11-11T02:56:46;7.80;;;2.00;;
3781;SDS011;6881;49.962;7.718;2022-11-11T02:59:30;3.90;;;1.77;;
3781;SDS011;6881;49.962;7.718;2022-11-11T03:01:55;6.50;;;1.33;;
3781;SDS011;6881;49.962;7.718;2022-11-11T03:04:21;2.07;;;1.40;;
3781;SDS011;6881;49.962;7.718;2022-11-11T03:06:46;3.47;;;1.30;;
3781;SDS011;6881;49.962;7.718;2022-11-11T03:09:12;2.47;;;1.30;;
3781;SDS011;6881;49.962;7.718;2022-11-11T03:11:37;1.30;;;1.20;;
3781;SDS011;6881;49.962;7.718;2022-11-11T03:14:03;3.90;;;1.83;;
3781;SDS011;6881;49.962;7.718;2022-11-11T03:16:29;2.10;;;1.90;;
3781;SDS011;6881;49.962;7.718;2022-11-11T03:19:12;4.70;;;1.93;;
3781;SDS011;6881;49.962;7.718;2022-11-11T03:21:38;1.93;;;1.53;;
3781;SDS011;6881;49.962;7.718;2022-11-11T03:24:03;2.90;;;1.20;;
3781;SDS011;6881;49.962;7.718;2022-11-11T03:26:29;5.17;;;1.47;;
3781;SDS011;6881;49.962;7.718;2022-11-11T03:28:55;1.50;;;1.27;;
3781;SDS011;6881;49.962;7.718;2022-11-11T03:31:20;2.50;;;1.40;;
3781;SDS011;6881;49.962;7.718;2022-11-11T03:33:46;1.10;;;0.90;;
3781;SDS011;6881;49.962;7.718;2022-11-11T03:36:11;4.00;;;1.50;;
3781;SDS011;6881;49.962;7.718;2022-11-11T03:38:37;3.03;;;1.57;;
3781;SDS011;6881;49.962;7.718;2022-11-11T03:41:02;2.27;;;1.40;;
3781;SDS011;6881;49.962;7.718;2022-11-11T03:43:29;2.57;;;1.30;;
3781;SDS011;6881;49.962;7.718;2022-11-11T03:45:56;4.70;;;2.03;;
3781;SDS011;6881;49.962;7.718;2022-11-11T03:48:23;2.27;;;1.40;;
3781;SDS011;6881;49.962;7.718;2022-11-11T03:50:49;1.57;;;1.47;;
3781;SDS011;6881;49.962;7.718;2022-11-11T03:53:15;3.93;;;1.40;;
3781;SDS011;6881;49.962;7.718;2022-11-11T03:55:42;3.13;;;1.10;;
3781;SDS011;6881;49.962;7.718;2022-11-11T03:58:07;2.97;;;1.20;;
3781;SDS011;6881;49.962;7.718;2022-11-11T04:00:33;1.73;;;1.00;;
3781;SDS011;6881;49.962;7.718;2022-11-11T04:03:05;1.43;;;1.17;;
3781;SDS011;6881;49.962;7.718;2022-11-11T04:05:52;2.47;;;1.20;;
3781;SDS011;6881;49.962;7.718;2022-11-11T04:08:36;2.87;;;1.23;;
3781;SDS011;6881;49.962;7.718;2022-11-11T04:11:24;1.67;;;1.10;;
3781;SDS011;6881;49.962;7.718;2022-11-11T04:13:51;2.00;;;1.40;;
3781;SDS011;6881;49.962;7.718;2022-11-11T04:16:35;2.70;;;1.50;;
3781;SDS011;6881;49.962;7.718;2022-11-11T04:19:01;2.90;;;1.57;;
3781;SDS011;6881;49.962;7.718;2022-11-11T04:21:45;1.73;;;1.50;;
3781;SDS011;6881;49.962;7.718;2022-11-11T04:24:12;2.80;;;1.40;;
3781;SDS011;6881;49.962;7.718;2022-11-11T04:26:59;3.07;;;1.60;;
3781;SDS011;6881;49.962;7.718;2022-11-11T04:29:26;2.43;;;1.33;;
3781;SDS011;6881;49.962;7.718;2022-11-11T04:31:52;1.93;;;1.43;;
3781;SDS011;6881;49.962;7.718;2022-11-11T04:34:37;3.80;;;2.10;;
3781;SDS011;6881;49.962;7.718;2022-11-11T04:37:02;4.20;;;1.23;;
3781;SDS011;6881;49.962;7.718;2022-11-11T04:39:27;1.53;;;1.27;;
3781;SDS011;6881;49.962;7.718;2022-11-11T04:42:11;2.97;;;1.20;;
3781;SDS011;6881;49.962;7.718;2022-11-11T04:44:36;1.83;;;1.53;;
3781;SDS011;6881;49.962;7.718;2022-11-11T04:47:20;1.70;;;1.17;;
3781;SDS011;6881;49.962;7.718;2022-11-11T04:49:46;2.53;;;0.80;;
3781;SDS011;6881;49.962;7.718;2022-11-11T04:52:11;1.90;;;0.97;;
3781;SDS011;6881;49.962;7.718;2022-11-11T04:54:52;2.10;;;1.13;;
3781;SDS011;6881;49.962;7.718;2022-11-11T04:57:41;1.33;;;1.23;;
3781;SDS011;6881;49.962;7.718;2022-11-11T05:00:08;1.67;;;1.10;;
3781;SDS011;6881;49.962;7.718;2022-11-11T05:02:35;3.43;;;0.80;;
3781;SDS011;6881;49.962;7.718;2022-11-11T05:05:19;2.00;;;1.63;;
3781;SDS011;6881;49.962;7.718;2022-11-11T05:07:44;3.57;;;1.23;;
3781;SDS011;6881;49.962;7.718;2022-11-11T05:10:28;2.97;;;1.27;;
3781;SDS011;6881;49.962;7.718;2022-11-11T05:12:54;7.60;;;1.37;;
3781;SDS011;6881;49.962;7.718;2022-11-11T05:15:41;2.70;;;1.20;;
3781;SDS011;6881;49.962;7.718;2022-11-11T05:18:25;4.40;;;1.70;;
3781;SDS011;6881;49.962;7.718;2022-11-11T05:21:11;2.20;;;1.50;;
3781;SDS011;6881;49.962;7.718;2022-11-11T05:23:45;2.70;;;1.63;;
3781;SDS011;6881;49.962;7.718;2022-11-11T05:26:29;4.80;;;2.27;;
3781;SDS011;6881;49.962;7.718;2022-11-11T05:28:54;2.57;;;1.73;;
3781;SDS011;6881;49.962;7.718;2022-11-11T05:31:20;2.00;;;1.80;;
3781;SDS011;6881;49.962;7.718;2022-11-11T05:33:45;3.43;;;2.40;;
3781;SDS011;6881;49.962;7.718;2022-11-11T05:36:11;3.07;;;2.30;;
3781;SDS011;6881;49.962;7.718;2022-11-11T05:38:36;2.73;;;2.00;;
3781;SDS011;6881;49.962;7.718;2022-11-11T05:41:01;3.47;;;2.37;;
3781;SDS011;6881;49.962;7.718;2022-11-11T05:43:27;7.77;;;2.63;;
3781;SDS011;6881;49.962;7.718;2022-11-11T05:45:52;3.30;;;1.93;;
3781;SDS011;6881;49.962;7.718;2022-11-11T05:48:17;3.27;;;2.37;;
3781;SDS011;6881;49.962;7.718;2022-11-11T05:50:42;2.00;;;1.80;;
3781;SDS011;6881;49.962;7.718;2022-11-11T05:53:08;2.00;;;1.90;;
3781;SDS011;6881;49.962;7.718;2022-11-11T05:55:33;4.13;;;1.80;;
3781;SDS011;6881;49.962;7.718;2022-11-11T05:57:58;4.57;;;1.90;;
3781;SDS011;6881;49.962;7.718;2022-11-11T06:00:24;2.23;;;1.60;;
3781;SDS011;6881;49.962;7.718;2022-11-11T06:02:49;1.83;;;1.70;;
3781;SDS011;6881;49.962;7.718;2022-11-11T06:05:15;1.90;;;1.47;;
3781;SDS011;6881;49.962;7.718;2022-11-11T06:07:40;3.20;;;3.00;;
3781;SDS011;6881;49.962;7.718;2022-11-11T06:10:05;4.00;;;3.60;;
3781;SDS011;6881;49.962;7.718;2022-11-11T06:12:50;7.77;;;3.83;;
3781;SDS011;6881;49.962;7.718;2022-11-11T06:15:34;13.73;;;9.60;;
3781;SDS011;6881;49.962;7.718;2022-11-11T06:18:03;15.50;;;8.30;;
3781;SDS011;6881;49.962;7.718;2022-11-11T06:20:29;10.53;;;5.83;;
3781;SDS011;6881;49.962;7.718;2022-11-11T06:22:55;9.80;;;6.50;;
3781;SDS011;6881;49.962;7.718;2022-11-11T06:25:21;12.33;;;5.43;;
3781;SDS011;6881;49.962;7.718;2022-11-11T06:28:12;3.50;;;2.70;;
3781;SDS011;6881;49.962;7.718;2022-11-11T06:30:37;5.60;;;3.80;;
3781;SDS011;6881;49.962;7.718;2022-11-11T06:33:03;5.67;;;3.57;;
3781;SDS011;6881;49.962;7.718;2022-11-11T06:35:28;9.40;;;3.67;;
3781;SDS011;6881;49.962;7.718;2022-11-11T06:37:54;4.20;;;2.70;;
3781;SDS011;6881;49.962;7.718;2022-11-11T06:40:19;6.53;;;3.20;;
3781;SDS011;6881;49.962;7.718;2022-11-11T06:42:44;7.40;;;3.67;;
3781;SDS011;6881;49.962;7.718;2022-11-11T06:45:10;9.80;;;3.90;;
3781;SDS011;6881;49.962;7.718;2022-11-11T06:47:35;11.80;;;4.77;;
3781;SDS011;6881;49.962;7.718;2022-11-11T06:50:00;6.27;;;4.77;;
3781;SDS011;6881;49.962;7.718;2022-11-11T06:52:26;5.03;;;3.43;;
3781;SDS011;6881;49.962;7.718;2022-11-11T06:54:51;5.00;;;3.30;;
3781;SDS011;6881;49.962;7.718;2022-11-11T06:57:16;7.50;;;4.20;;
3781;SDS011;6881;49.962;7.718;2022-11-11T06:59:42;11.60;;;5.10;;
3781;SDS011;6881;49.962;7.718;2022-11-11T07:02:10;7.97;;;5.93;;
3781;SDS011;6881;49.962;7.718;2022-11-11T07:04:37;7.53;;;5.80;;
3781;SDS011;6881;49.962;7.718;2022-11-11T07:07:02;6.30;;;4.83;;
3781;SDS011;6881;49.962;7.718;2022-11-11T07:09:27;4.27;;;3.63;;
3781;SDS011;6881;49.962;7.718;2022-11-11T07:11:53;6.03;;;3.53;;
3781;SDS011;6881;49.962;7.718;2022-11-11T07:14:18;3.27;;;2.97;;
3781;SDS011;6881;49.962;7.718;2022-11-11T07:16:44;4.63;;;2.90;;
3781;SDS011;6881;49.962;7.718;2022-11-11T07:19:09;5.10;;;3.60;;
3781;SDS011;6881;49.962;7.718;2022-11-11T07:21:34;4.40;;;4.00;;
3781;SDS011;6881;49.962;7.718;2022-11-11T07:24:00;4.30;;;3.40;;
3781;SDS011;6881;49.962;7.718;2022-11-11T07:26:25;5.00;;;4.03;;
3781;SDS011;6881;49.962;7.718;2022-11-11T07:28:50;4.57;;;3.53;;
3781;SDS011;6881;49.962;7.718;2022-11-11T07:31:16;2.93;;;2.63;;
3781;SDS011;6881;49.962;7.718;2022-11-11T07:33:41;3.70;;;3.20;;
3781;SDS011;6881;49.962;7.718;2022-11-11T07:36:06;3.97;;;2.67;;
3781;SDS011;6881;49.962;7.718;2022-11-11T07:38:32;8.07;;;7.27;;
3781;SDS011;6881;49.962;7.718;2022-11-11T07:40:57;10.17;;;9.20;;
3781;SDS011;6881;49.962;7.718;2022-11-11T07:43:22;8.07;;;7.27;;
3781;SDS011;6881;49.962;7.718;2022-11-11T07:45:49;9.23;;;7.27;;
3781;SDS011;6881;49.962;7.718;2022-11-11T07:48:15;9.70;;;8.80;;
3781;SDS011;6881;49.962;7.718;2022-11-11T07:50:40;10.60;;;9.27;;
3781;SDS011;6881;49.962;7.718;2022-11-11T07:53:05;9.37;;;6.50;;
3781;SDS011;6881;49.962;7.718;2022-11-11T07:55:31;8.37;;;7.30;;
3781;SDS011;6881;49.962;7.718;2022-11-11T07:57:56;8.63;;;6.27;;
3781;SDS011;6881;49.962;7.718;2022-11-11T08:00:22;7.20;;;6.20;;
3781;SDS011;6881;49.962;7.718;2022-11-11T08:02:47;6.30;;;5.70;;
3781;SDS011;6881;49.962;7.718;2022-11-11T08:05:13;5.60;;;5.10;;
3781;SDS011;6881;49.962;7.718;2022-11-11T08:07:38;6.10;;;5.10;;
3781;SDS011;6881;49.962;7.718;2022-11-11T08:10:06;5.43;;;4.10;;
3781;SDS011;6881;49.962;7.718;2022-11-11T08:12:32;3.87;;;3.47;;
3781;SDS011;6881;49.962;7.718;2022-11-11T08:15:15;13.63;;;9.67;;
3781;SDS011;6881;49.962;7.718;2022-11-11T08:17:41;17.17;;;12.10;;
3781;SDS011;6881;49.962;7.718;2022-11-11T08:20:07;13.80;;;8.40;;
3781;SDS011;6881;49.962;7.718;2022-11-11T08:22:40;14.93;;;9.97;;
3781;SDS011;6881;49.962;7.718;2022-11-11T08:25:07;15.53;;;11.90;;
3781;SDS011;6881;49.962;7.718;2022-11-11T08:27:34;14.23;;;10.33;;
3781;SDS011;6881;49.962;7.718;2022-11-11T08:30:00;9.00;;;7.03;;
3781;SDS011;6881;49.962;7.718;2022-11-11T08:32:25;7.67;;;5.97;;
3781;SDS011;6881;49.962;7.718;2022-11-11T08:34:51;10.07;;;6.83;;
3781;SDS011;6881;49.962;7.718;2022-11-11T08:37:16;7.23;;;5.70;;
3781;SDS011;6881;49.962;7.718;2022-11-11T08:39:41;6.53;;;5.00;;
3781;SDS011;6881;49.962;7.718;2022-11-11T08:42:07;7.37;;;5.73;;
3781;SDS011;6881;49.962;7.718;2022-11-11T08:44:32;10.23;;;6.63;;
3781;SDS011;6881;49.962;7.718;2022-11-11T08:46:58;5.83;;;5.23;;
3781;SDS011;6881;49.962;7.718;2022-11-11T08:49:23;6.47;;;5.00;;
3781;SDS011;6881;49.962;7.718;2022-11-11T08:51:48;6.53;;;5.63;;
3781;SDS011;6881;49.962;7.718;2022-11-11T08:54:14;7.47;;;6.70;;
3781;SDS011;6881;49.962;7.718;2022-11-11T08:56:39;6.30;;;5.70;;
3781;SDS011;6881;49.962;7.718;2022-11-11T08:59:04;6.30;;;5.20;;
3781;SDS011;6881;49.962;7.718;2022-11-11T09:01:30;8.83;;;6.17;;
3781;SDS011;6881;49.962;7.718;2022-11-11T09:03:55;5.57;;;5.07;;
3781;SDS011;6881;49.962;7.718;2022-11-11T09:06:21;5.00;;;4.03;;
3781;SDS011;6881;49.962;7.718;2022-11-11T09:08:46;5.20;;;4.17;;
3781;SDS011;6881;49.962;7.718;2022-11-11T09:11:11;6.70;;;5.57;;
3781;SDS011;6881;49.962;7.718;2022-11-11T09:13:37;7.83;;;7.13;;
3781;SDS011;6881;49.962;7.718;2022-11-11T09:16:02;8.10;;;7.00;;
3781;SDS011;6881;49.962;7.718;2022-11-11T09:18:28;4.90;;;3.03;;
3781;SDS011;6881;49.962;7.718;2022-11-11T09:20:56;4.93;;;2.53;;
3781;SDS011;6881;49.962;7.718;2022-11-11T09:23:22;4.60;;;2.60;;
3781;SDS011;6881;49.962;7.718;2022-11-11T09:25:48;4.17;;;2.00;;
3781;SDS011;6881;49.962;7.718;2022-11-11T09:28:13;5.13;;;2.00;;
3781;SDS011;6881;49.962;7.718;2022-11-11T09:30:39;2.53;;;2.00;;
3781;SDS011;6881;49.962;7.718;2022-11-11T09:33:04;3.80;;;1.77;;
3781;SDS011;6881;49.962;7.718;2022-11-11T09:35:30;3.10;;;2.50;;
3781;SDS011;6881;49.962;7.718;2022-11-11T09:37:56;3.57;;;2.70;;
3781;SDS011;6881;49.962;7.718;2022-11-11T09:40:25;2.43;;;2.13;;
3781;SDS011;6881;49.962;7.718;2022-11-11T09:50:56;3.53;;;3.23;;
3781;SDS011;6881;49.962;7.718;2022-11-11T09:55:58;3.67;;;2.43;;
3781;SDS011;6881;49.962;7.718;2022-11-11T09:58:28;3.90;;;3.33;;
3781;SDS011;6881;49.962;7.718;2022-11-11T10:00:59;4.13;;;3.10;;
3781;SDS011;6881;49.962;7.718;2022-11-11T10:03:27;3.20;;;2.90;;
3781;SDS011;6881;49.962;7.718;2022-11-11T10:14:35;6.80;;;3.77;;
3781;SDS011;6881;49.962;7.718;2022-11-11T10:17:13;3.97;;;3.67;;
3781;SDS011;6881;49.962;7.718;2022-11-11T10:22:21;4.03;;;3.73;;
3781;SDS011;6881;49.962;7.718;2022-11-11T10:25:06;3.97;;;3.57;;
3781;SDS011;6881;49.962;7.718;2022-11-11T10:27:32;5.13;;;3.40;;
3781;SDS011;6881;49.962;7.718;2022-11-11T10:29:58;6.07;;;3.57;;
3781;SDS011;6881;49.962;7.718;2022-11-11T10:32:26;3.60;;;3.27;;
3781;SDS011;6881;49.962;7.718;2022-11-11T10:34:54;4.10;;;3.60;;
3781;SDS011;6881;49.962;7.718;2022-11-11T10:37:35;4.30;;;3.57;;
3781;SDS011;6881;49.962;7.718;2022-11-11T10:42:49;4.20;;;3.67;;
3781;SDS011;6881;49.962;7.718;2022-11-11T10:45:21;4.50;;;4.10;;
3781;SDS011;6881;49.962;7.718;2022-11-11T10:48:02;4.80;;;4.30;;
3781;SDS011;6881;49.962;7.718;2022-11-11T10:50:31;4.40;;;3.50;;
3781;SDS011;6881;49.962;7.718;2022-11-11T10:58:51;3.47;;;3.13;;
3781;SDS011;6881;49.962;7.718;2022-11-11T11:01:31;4.30;;;3.20;;
3781;SDS011;6881;49.962;7.718;2022-11-11T11:04:04;3.20;;;2.90;;
3781;SDS011;6881;49.962;7.718;2022-11-11T11:06:33;3.77;;;3.47;;
3781;SDS011;6881;49.962;7.718;2022-11-11T11:09:02;5.30;;;2.90;;
3781;SDS011;6881;49.962;7.718;2022-11-11T11:11:40;3.70;;;3.20;;
3781;SDS011;6881;49.962;7.718;2022-11-11T11:14:15;4.27;;;3.33;;
3781;SDS011;6881;49.962;7.718;2022-11-11T11:16:46;5.57;;;3.23;;
3781;SDS011;6881;49.962;7.718;2022-11-11T11:19:22;3.10;;;2.80;;
3781;SDS011;6881;49.962;7.718;2022-11-11T11:24:21;3.30;;;3.00;;
3781;SDS011;6881;49.962;7.718;2022-11-11T11:26:50;3.73;;;3.43;;
3781;SDS011;6881;49.962;7.718;2022-11-11T11:29:27;4.00;;;3.50;;
3781;SDS011;6881;49.962;7.718;2022-11-11T11:31:53;3.60;;;3.27;;
3781;SDS011;6881;49.962;7.718;2022-11-11T11:34:19;5.17;;;4.17;;
3781;SDS011;6881;49.962;7.718;2022-11-11T11:36:56;4.50;;;3.23;;
3781;SDS011;6881;49.962;7.718;2022-11-11T11:39:33;3.87;;;3.30;;
3781;SDS011;6881;49.962;7.718;2022-11-11T11:41:59;3.77;;;3.37;;
3781;SDS011;6881;49.962;7.718;2022-11-11T11:44:30;4.37;;;3.40;;
3781;SDS011;6881;49.962;7.718;2022-11-11T11:47:10;3.50;;;3.20;;
3781;SDS011;6881;49.962;7.718;2022-11-11T11:52:41;4.20;;;3.57;;
3781;SDS011;6881;49.962;7.718;2022-11-11T11:55:11;4.63;;;4.00;;
3781;SDS011;6881;49.962;7.718;2022-11-11T12:16:11;4.40;;;4.03;;
3781;SDS011;6881;49.962;7.718;2022-11-11T12:21:25;4.83;;;4.33;;
3781;SDS011;6881;49.962;7.718;2022-11-11T12:23:55;4.77;;;4.20;;
3781;SDS011;6881;49.962;7.718;2022-11-11T12:46:21;4.37;;;4.00;;
3781;SDS011;6881;49.962;7.718;2022-11-11T12:48:53;6.73;;;6.13;;
3781;SDS011;6881;49.962;7.718;2022-11-11T12:54:24;5.40;;;4.90;;
3781;SDS011;6881;49.962;7.718;2022-11-11T13:10:39;8.03;;;7.33;;
3781;SDS011;6881;49.962;7.718;2022-11-11T13:13:42;11.73;;;6.67;;
3781;SDS011;6881;49.962;7.718;2022-11-11T13:16:16;7.47;;;6.73;;
3781;SDS011;6881;49.962;7.718;2022-11-11T13:21:23;9.10;;;7.50;;
3781;SDS011;6881;49.962;7.718;2022-11-11T13:23:54;8.60;;;7.20;;
3781;SDS011;6881;49.962;7.718;2022-11-11T13:26:37;9.07;;;8.17;;
3781;SDS011;6881;49.962;7.718;2022-11-11T13:31:47;8.97;;;7.97;;
3781;SDS011;6881;49.962;7.718;2022-11-11T13:34:13;11.77;;;7.50;;
3781;SDS011;6881;49.962;7.718;2022-11-11T13:36:47;12.90;;;8.47;;
3781;SDS011;6881;49.962;7.718;2022-11-11T13:39:22;10.20;;;6.87;;
3781;SDS011;6881;49.962;7.718;2022-11-11T13:41:48;8.50;;;7.47;;
3781;SDS011;6881;49.962;7.718;2022-11-11T13:44:20;7.90;;;6.43;;
3781;SDS011;6881;49.962;7.718;2022-11-11T13:46:48;12.03;;;7.83;;
3781;SDS011;6881;49.962;7.718;2022-11-11T13:49:27;9.30;;;7.10;;
3781;SDS011;6881;49.962;7.718;2022-11-11T13:52:09;10.93;;;8.10;;
3781;SDS011;6881;49.962;7.718;2022-11-11T13:54:48;14.17;;;8.70;;
3781;SDS011;6881;49.962;7.718;2022-11-11T13:57:18;12.37;;;9.30;;
3781;SDS011;6881;49.962;7.718;2022-11-11T13:59:54;12.90;;;8.40;;
3781;SDS011;6881;49.962;7.718;2022-11-11T14:02:30;12.30;;;8.50;;
3781;SDS011;6881;49.962;7.718;2022-11-11T14:07:53;11.90;;;9.20;;
3781;SDS011;6881;49.962;7.718;2022-11-11T14:12:50;10.37;;;8.20;;
3781;SDS011;6881;49.962;7.718;2022-11-11T14:15:32;11.20;;;8.20;;
3781;SDS011;6881;49.962;7.718;2022-11-11T14:17:57;10.07;;;6.43;;
3781;SDS011;6881;49.962;7.718;2022-11-11T14:22:54;9.67;;;6.80;;
3781;SDS011;6881;49.962;7.718;2022-11-11T14:25:39;7.57;;;6.30;;
3781;SDS011;6881;49.962;7.718;2022-11-11T14:28:17;8.80;;;6.60;;
3781;SDS011;6881;49.962;7.718;2022-11-11T14:30:53;12.20;;;8.70;;
3781;SDS011;6881;49.962;7.718;2022-11-11T14:41:55;8.97;;;6.10;;
3781;SDS011;6881;49.962;7.718;2022-11-11T14:57:45;10.80;;;7.60;;
3781;SDS011;6881;49.962;7.718;2022-11-11T15:00:17;10.87;;;7.33;;
3781;SDS011;6881;49.962;7.718;2022-11-11T15:05:14;17.43;;;10.00;;
3781;SDS011;6881;49.962;7.718;2022-11-11T15:07:52;13.83;;;8.90;;
3781;SDS011;6881;49.962;7.718;2022-11-11T15:13:27;11.17;;;8.50;;
3781;SDS011;6881;49.962;7.718;2022-11-11T15:16:15;11.47;;;7.70;;
3781;SDS011;6881;49.962;7.718;2022-11-11T15:28:00;9.30;;;6.90;;
3781;SDS011;6881;49.962;7.718;2022-11-11T15:33:39;10.57;;;7.37;;
3781;SDS011;6881;49.962;7.718;2022-11-11T15:39:10;8.40;;;6.97;;
3781;SDS011;6881;49.962;7.718;2022-11-11T15:41:38;9.70;;;6.30;;
3781;SDS011;6881;49.962;7.718;2022-11-11T15:44:10;11.47;;;7.50;;
3781;SDS011;6881;49.962;7.718;2022-11-11T15:46:46;11.40;;;8.73;;
3781;SDS011;6881;49.962;7.718;2022-11-11T15:49:58;12.23;;;9.03;;
3781;SDS011;6881;49.962;7.718;2022-11-11T15:52:02;11.27;;;8.67;;
3781;SDS011;6881;49.962;7.718;2022-11-11T15:54:31;12.83;;;9.47;;
3781;SDS011;6881;49.962;7.718;2022-11-11T15:56:57;16.47;;;11.27;;
3781;SDS011;6881;49.962;7.718;2022-11-11T15:59:23;18.20;;;12.97;;
3781;SDS011;6881;49.962;7.718;2022-11-11T16:01:53;17.53;;;12.90;;
3781;SDS011;6881;49.962;7.718;2022-11-11T16:04:19;14.43;;;11.20;;
3781;SDS011;6881;49.962;7.718;2022-11-11T16:06:47;10.13;;;9.07;;
3781;SDS011;6881;49.962;7.718;2022-11-11T16:09:13;12.97;;;10.13;;
3781;SDS011;6881;49.962;7.718;2022-11-11T16:11:41;17.10;;;10.80;;
3781;SDS011;6881;49.962;7.718;2022-11-11T16:14:07;13.80;;;10.73;;
3781;SDS011;6881;49.962;7.718;2022-11-11T16:16:41;12.63;;;9.00;;
3781;SDS011;6881;49.962;7.718;2022-11-11T16:19:20;13.30;;;9.77;;
3781;SDS011;6881;49.962;7.718;2022-11-11T16:22:00;11.63;;;9.27;;
3781;SDS011;6881;49.962;7.718;2022-11-11T16:24:30;14.03;;;9.63;;
3781;SDS011;6881;49.962;7.718;2022-11-11T16:26:57;14.27;;;10.30;;
3781;SDS011;6881;49.962;7.718;2022-11-11T16:29:22;12.07;;;10.00;;
3781;SDS011;6881;49.962;7.718;2022-11-11T16:31:53;12.40;;;8.67;;
3781;SDS011;6881;49.962;7.718;2022-11-11T16:39:25;13.47;;;9.43;;
3781;SDS011;6881;49.962;7.718;2022-11-11T16:41:52;11.43;;;8.30;;
3781;SDS011;6881;49.962;7.718;2022-11-11T16:46:59;14.97;;;9.93;;
3781;SDS011;6881;49.962;7.718;2022-11-11T16:49:32;13.60;;;9.43;;
3781;SDS011;6881;49.962;7.718;2022-11-11T16:52:08;16.80;;;10.50;;
3781;SDS011;6881;49.962;7.718;2022-11-11T16:54:47;20.37;;;13.80;;
3781;SDS011;6881;49.962;7.718;2022-11-11T16:57:21;26.47;;;18.20;;
3781;SDS011;6881;49.962;7.718;2022-11-11T16:59:50;38.57;;;25.90;;
3781;SDS011;6881;49.962;7.718;2022-11-11T17:02:19;38.93;;;24.37;;
3781;SDS011;6881;49.962;7.718;2022-11-11T17:10:09;15.20;;;9.27;;
3781;SDS011;6881;49.962;7.718;2022-11-11T17:12:38;14.10;;;8.03;;
3781;SDS011;6881;49.962;7.718;2022-11-11T17:15:08;13.47;;;11.43;;
3781;SDS011;6881;49.962;7.718;2022-11-11T17:17:35;23.37;;;17.10;;
3781;SDS011;6881;49.962;7.718;2022-11-11T17:20:06;18.57;;;14.33;;
3781;SDS011;6881;49.962;7.718;2022-11-11T17:22:33;13.03;;;11.63;;
3781;SDS011;6881;49.962;7.718;2022-11-11T17:24:58;13.20;;;11.47;;
3781;SDS011;6881;49.962;7.718;2022-11-11T17:27:24;13.20;;;10.93;;
3781;SDS011;6881;49.962;7.718;2022-11-11T17:29:49;10.27;;;9.13;;
3781;SDS011;6881;49.962;7.718;2022-11-11T17:32:14;8.17;;;6.77;;
3781;SDS011;6881;49.962;7.718;2022-11-11T17:34:40;9.10;;;6.90;;
3781;SDS011;6881;49.962;7.718;2022-11-11T17:37:05;7.97;;;6.47;;
3781;SDS011;6881;49.962;7.718;2022-11-11T17:39:30;14.37;;;9.93;;
3781;SDS011;6881;49.962;7.718;2022-11-11T17:41:56;10.70;;;7.70;;
3781;SDS011;6881;49.962;7.718;2022-11-11T17:44:21;14.20;;;9.00;;
3781;SDS011;6881;49.962;7.718;2022-11-11T17:46:46;12.80;;;9.20;;
3781;SDS011;6881;49.962;7.718;2022-11-11T17:49:12;10.30;;;7.90;;
3781;SDS011;6881;49.962;7.718;2022-11-11T17:51:37;13.10;;;10.13;;
3781;SDS011;6881;49.962;7.718;2022-11-11T17:54:05;10.20;;;9.10;;
3781;SDS011;6881;49.962;7.718;2022-11-11T17:56:31;15.80;;;9.90;;
3781;SDS011;6881;49.962;7.718;2022-11-11T17:58:57;13.57;;;11.87;;
3781;SDS011;6881;49.962;7.718;2022-11-11T18:01:23;19.03;;;13.17;;
3781;SDS011;6881;49.962;7.718;2022-11-11T18:03:48;20.13;;;13.03;;
3781;SDS011;6881;49.962;7.718;2022-11-11T18:06:13;9.87;;;8.70;;
3781;SDS011;6881;49.962;7.718;2022-11-11T18:08:39;17.90;;;11.80;;
3781;SDS011;6881;49.962;7.718;2022-11-11T18:11:06;18.50;;;9.23;;